Time;durP1;ratioP1;P1;durP2;ratioP2;P2;SDS_P1;SDS_P2;PMS_P1;PMS_P2;Temp;Humidity;BMP_temperature;BMP_pressure;BME280_temperature;BME280_humidity;BME280_pressure;Samples;Min_cycle;Max_cycle;Signal;HPM_P1;HPM_P2
2023/07/22 00:01:14;;;;;;;12.00;4.90;;;;;;;;;;5013269;28;20036;-65
2023/07/22 00:03:40;;;;;;;8.98;4.63;;;;;;;;;;5011513;28;21219;-64
2023/07/22 00:06:07;;;;;;;9.73;4.93;;;;;;;;;;5011908;28;20029;-64
2023/07/22 00:08:34;;;;;;;12.05;4.90;;;;;;;;;;5011796;28;20029;-64
2023/07/22 00:11:00;;;;;;;11.70;5.20;;;;;;;;;;5011643;28;20128;-65
2023/07/22 00:13:29;;;;;;;9.55;4.50;;;;;;;;;;5011168;28;20074;-65
2023/07/22 00:15:55;;;;;;;10.23;5.30;;;;;;;;;;5011672;28;20686;-64
2023/07/22 00:18:21;;;;;;;9.48;4.22;;;;;;;;;;5012281;28;20038;-64
2023/07/22 00:20:47;;;;;;;9.48;3.92;;;;;;;;;;5015109;28;20036;-64
2023/07/22 00:23:15;;;;;;;9.55;3.97;;;;;;;;;;5014108;28;20140;-65
2023/07/22 00:25:41;;;;;;;7.97;4.03;;;;;;;;;;5014090;28;20053;-65
2023/07/22 00:28:07;;;;;;;10.15;4.25;;;;;;;;;;5012304;28;20056;-65
2023/07/22 00:30:34;;;;;;;8.07;4.15;;;;;;;;;;5011906;28;20041;-64
2023/07/22 00:33:00;;;;;;;14.38;4.63;;;;;;;;;;5013060;28;20029;-64
2023/07/22 00:35:27;;;;;;;9.85;4.30;;;;;;;;;;5014972;28;20962;-64
2023/07/22 00:37:53;;;;;;;9.68;4.55;;;;;;;;;;5014522;28;20108;-63
2023/07/22 00:40:19;;;;;;;7.32;3.65;;;;;;;;;;5014905;28;20033;-64
2023/07/22 00:42:45;;;;;;;8.95;4.35;;;;;;;;;;5015264;28;20040;-65
2023/07/22 00:45:11;;;;;;;8.85;4.43;;;;;;;;;;5014523;28;20043;-64
2023/07/22 00:47:38;;;;;;;8.75;4.28;;;;;;;;;;5015640;28;20040;-65
2023/07/22 00:50:06;;;;;;;7.78;4.07;;;;;;;;;;5012914;28;20057;-66
2023/07/22 00:52:32;;;;;;;7.38;3.78;;;;;;;;;;5013644;28;21263;-65
2023/07/22 00:54:58;;;;;;;9.43;4.13;;;;;;;;;;5015036;28;20021;-65
2023/07/22 00:57:25;;;;;;;10.30;3.85;;;;;;;;;;5014938;28;21622;-65
2023/07/22 00:59:51;;;;;;;12.02;4.38;;;;;;;;;;5015275;28;21875;-65
2023/07/22 01:02:17;;;;;;;8.80;4.43;;;;;;;;;;5014527;28;20891;-65
2023/07/22 01:04:43;;;;;;;10.68;4.68;;;;;;;;;;5014773;28;20039;-65
2023/07/22 01:07:10;;;;;;;8.55;4.25;;;;;;;;;;5012839;28;20112;-66
2023/07/22 01:09:39;;;;;;;12.77;4.57;;;;;;;;;;5013647;28;20068;-66
2023/07/22 01:12:06;;;;;;;9.20;4.32;;;;;;;;;;5013411;28;20048;-66
2023/07/22 01:14:36;;;;;;;11.50;4.22;;;;;;;;;;5012412;28;20617;-66
2023/07/22 01:17:06;;;;;;;9.27;4.28;;;;;;;;;;5013822;28;20033;-66
2023/07/22 01:19:33;;;;;;;10.52;3.88;;;;;;;;;;5013527;28;20128;-66
2023/07/22 01:22:04;;;;;;;11.25;4.70;;;;;;;;;;5013493;28;20484;-65
2023/07/22 01:24:31;;;;;;;8.35;4.40;;;;;;;;;;5012591;28;20041;-66
2023/07/22 01:26:57;;;;;;;8.65;4.18;;;;;;;;;;5011695;28;20048;-66
2023/07/22 01:29:23;;;;;;;8.00;3.83;;;;;;;;;;5013014;28;20042;-66
2023/07/22 01:31:51;;;;;;;9.23;4.78;;;;;;;;;;5013030;28;20064;-66
2023/07/22 01:34:17;;;;;;;9.38;4.13;;;;;;;;;;5010807;28;21052;-66
2023/07/22 01:36:44;;;;;;;12.32;4.55;;;;;;;;;;5013956;28;20189;-66
2023/07/22 01:39:11;;;;;;;8.38;3.97;;;;;;;;;;5013589;28;20041;-66
2023/07/22 01:41:37;;;;;;;8.32;4.22;;;;;;;;;;5014644;28;20045;-66
2023/07/22 01:44:03;;;;;;;7.75;3.45;;;;;;;;;;5013054;28;20069;-65
2023/07/22 01:46:29;;;;;;;9.30;3.80;;;;;;;;;;5015347;28;20030;-66
2023/07/22 01:48:58;;;;;;;11.60;5.15;;;;;;;;;;5013381;28;20040;-66
2023/07/22 01:51:25;;;;;;;8.32;4.13;;;;;;;;;;5014405;28;20242;-66
2023/07/22 01:53:51;;;;;;;8.07;4.10;;;;;;;;;;5013027;28;20029;-66
2023/07/22 01:56:17;;;;;;;7.32;3.47;;;;;;;;;;5014821;28;20033;-66
2023/07/22 01:58:43;;;;;;;7.25;3.40;;;;;;;;;;5015418;28;20041;-66
2023/07/22 02:01:09;;;;;;;7.57;3.70;;;;;;;;;;5018150;28;20048;-66
2023/07/22 02:03:35;;;;;;;7.38;3.45;;;;;;;;;;5017262;28;20218;-66
2023/07/22 02:06:03;;;;;;;9.27;3.60;;;;;;;;;;5018186;28;20060;-66
2023/07/22 02:08:29;;;;;;;7.60;3.90;;;;;;;;;;5016362;28;20102;-66
2023/07/22 02:10:55;;;;;;;9.60;3.40;;;;;;;;;;5016567;28;20080;-65
2023/07/22 02:13:21;;;;;;;8.02;3.72;;;;;;;;;;5016948;28;20052;-65
2023/07/22 02:15:47;;;;;;;8.75;3.65;;;;;;;;;;5016865;28;20079;-65
2023/07/22 02:18:13;;;;;;;7.88;3.58;;;;;;;;;;5015766;28;20070;-65
2023/07/22 02:20:42;;;;;;;7.25;3.50;;;;;;;;;;5015021;28;20040;-66
2023/07/22 02:23:09;;;;;;;11.90;3.40;;;;;;;;;;5015280;28;20095;-65
2023/07/22 02:25:38;;;;;;;8.80;3.75;;;;;;;;;;5015145;28;20037;-65
2023/07/22 02:28:04;;;;;;;7.68;2.95;;;;;;;;;;5015853;28;20069;-65
2023/07/22 02:30:30;;;;;;;11.10;3.67;;;;;;;;;;5016168;28;20142;-65
2023/07/22 02:32:56;;;;;;;9.77;3.70;;;;;;;;;;5015545;28;20087;-65
2023/07/22 02:35:23;;;;;;;6.43;2.92;;;;;;;;;;5016124;28;20076;-65
2023/07/22 02:37:49;;;;;;;6.18;2.72;;;;;;;;;;5016392;28;20041;-65
2023/07/22 02:40:15;;;;;;;6.30;3.08;;;;;;;;;;5016674;28;20033;-66
2023/07/22 02:42:41;;;;;;;6.53;2.72;;;;;;;;;;5015539;28;20060;-67
2023/07/22 02:45:07;;;;;;;7.20;3.33;;;;;;;;;;5016479;28;20029;-65
2023/07/22 02:47:34;;;;;;;6.65;2.92;;;;;;;;;;5017074;28;20102;-65
2023/07/22 02:50:00;;;;;;;6.38;2.90;;;;;;;;;;5016638;28;20553;-65
2023/07/22 02:52:27;;;;;;;8.57;3.10;;;;;;;;;;5014665;28;20025;-66
2023/07/22 02:55:13;;;;;;;6.95;3.33;;;;;;;;;;5016115;28;20025;-66
2023/07/22 02:57:39;;;;;;;6.53;2.72;;;;;;;;;;5016554;28;20735;-65
2023/07/22 03:00:11;;;;;;;8.18;3.28;;;;;;;;;;5014769;28;20033;-65
2023/07/22 03:02:37;;;;;;;5.95;3.22;;;;;;;;;;5015653;28;21701;-65
2023/07/22 03:05:10;;;;;;;6.50;2.83;;;;;;;;;;5015306;28;20055;-65
2023/07/22 03:07:37;;;;;;;8.65;3.70;;;;;;;;;;5015297;28;20033;-65
2023/07/22 03:10:04;;;;;;;8.18;3.65;;;;;;;;;;5014217;28;21022;-65
2023/07/22 03:12:30;;;;;;;8.15;3.47;;;;;;;;;;5016653;28;20041;-65
2023/07/22 03:14:56;;;;;;;8.40;4.00;;;;;;;;;;5015123;28;20045;-65
2023/07/22 03:17:23;;;;;;;7.75;4.20;;;;;;;;;;5015542;28;20033;-65
2023/07/22 03:19:49;;;;;;;8.95;3.72;;;;;;;;;;5014966;28;20500;-65
2023/07/22 03:22:18;;;;;;;8.90;3.05;;;;;;;;;;5016529;28;20047;-66
2023/07/22 03:24:45;;;;;;;5.85;2.80;;;;;;;;;;5015124;28;20122;-65
2023/07/22 03:27:12;;;;;;;6.43;3.10;;;;;;;;;;5015279;28;20566;-65
2023/07/22 03:29:38;;;;;;;7.72;3.30;;;;;;;;;;5015462;28;20041;-65
2023/07/22 03:32:05;;;;;;;6.47;3.20;;;;;;;;;;5015562;28;20035;-65
2023/07/22 03:34:31;;;;;;;8.70;3.10;;;;;;;;;;5015613;28;20465;-66
2023/07/22 03:36:58;;;;;;;7.13;3.50;;;;;;;;;;5014614;28;20048;-65
2023/07/22 03:39:24;;;;;;;7.32;3.20;;;;;;;;;;5015030;28;20037;-65
2023/07/22 03:41:50;;;;;;;10.63;3.80;;;;;;;;;;5015728;28;20037;-65
2023/07/22 03:44:17;;;;;;;6.40;3.08;;;;;;;;;;5016614;28;21356;-65
2023/07/22 03:46:43;;;;;;;8.15;3.58;;;;;;;;;;5016031;28;20495;-66
2023/07/22 03:49:09;;;;;;;8.15;3.85;;;;;;;;;;5015201;28;20072;-66
2023/07/22 03:51:35;;;;;;;8.18;4.30;;;;;;;;;;5014968;28;20401;-66
2023/07/22 03:54:01;;;;;;;8.15;3.92;;;;;;;;;;5014312;28;20029;-65
2023/07/22 03:56:27;;;;;;;8.52;4.20;;;;;;;;;;5015904;28;20095;-65
2023/07/22 03:58:54;;;;;;;9.63;4.75;;;;;;;;;;5014858;28;20578;-65
2023/07/22 04:01:20;;;;;;;8.00;4.57;;;;;;;;;;5015454;28;20029;-65
2023/07/22 04:03:46;;;;;;;8.02;4.45;;;;;;;;;;5014038;28;20033;-65
2023/07/22 04:06:12;;;;;;;10.95;5.07;;;;;;;;;;5014435;28;20029;-65
2023/07/22 04:08:38;;;;;;;10.45;4.78;;;;;;;;;;5013206;28;20029;-65
2023/07/22 04:11:04;;;;;;;11.15;5.30;;;;;;;;;;5014303;28;20038;-65
2023/07/22 04:13:30;;;;;;;9.98;5.10;;;;;;;;;;5013993;28;20896;-66
2023/07/22 04:15:57;;;;;;;9.68;4.80;;;;;;;;;;5014118;28;20026;-65
2023/07/22 04:18:23;;;;;;;12.15;5.20;;;;;;;;;;5015303;28;20037;-66
2023/07/22 04:20:55;;;;;;;9.02;4.43;;;;;;;;;;5014082;28;20037;-65
2023/07/22 04:23:22;;;;;;;9.02;4.53;;;;;;;;;;5015625;28;20392;-66
2023/07/22 04:25:48;;;;;;;10.02;4.70;;;;;;;;;;5014650;28;20036;-65
2023/07/22 04:28:15;;;;;;;10.68;4.30;;;;;;;;;;5013851;28;20029;-65
2023/07/22 04:30:41;;;;;;;8.45;4.78;;;;;;;;;;5013899;28;20045;-66
2023/07/22 04:33:10;;;;;;;9.48;4.50;;;;;;;;;;5014706;28;20156;-66
2023/07/22 04:35:41;;;;;;;10.05;4.40;;;;;;;;;;5014076;28;20060;-65
2023/07/22 04:38:07;;;;;;;8.90;4.50;;;;;;;;;;5014866;28;20904;-65
2023/07/22 04:40:33;;;;;;;12.23;5.43;;;;;;;;;;5015389;28;21783;-65
2023/07/22 04:43:03;;;;;;;9.98;4.82;;;;;;;;;;5013879;28;20041;-65
2023/07/22 04:45:32;;;;;;;10.35;5.15;;;;;;;;;;5013352;28;20791;-66
2023/07/22 04:47:58;;;;;;;11.43;4.88;;;;;;;;;;5012640;28;20432;-65
2023/07/22 04:50:24;;;;;;;9.20;5.13;;;;;;;;;;5013480;28;20112;-65
2023/07/22 04:52:50;;;;;;;9.77;5.82;;;;;;;;;;5013824;28;20497;-65
2023/07/22 04:55:16;;;;;;;9.23;5.40;;;;;;;;;;5013627;28;20389;-65
2023/07/22 04:57:44;;;;;;;9.10;5.28;;;;;;;;;;5014057;28;20037;-65
2023/07/22 05:00:16;;;;;;;10.18;5.57;;;;;;;;;;5014003;28;20059;-65
2023/07/22 05:02:43;;;;;;;9.05;5.20;;;;;;;;;;5014226;28;20038;-65
2023/07/22 05:05:10;;;;;;;12.00;5.22;;;;;;;;;;5016551;28;20064;-65
2023/07/22 05:07:36;;;;;;;8.95;5.32;;;;;;;;;;5013630;28;20128;-65
2023/07/22 05:10:02;;;;;;;13.50;5.93;;;;;;;;;;5012309;28;20040;-65
2023/07/22 05:12:28;;;;;;;10.13;5.50;;;;;;;;;;5011953;28;20120;-65
2023/07/22 05:14:54;;;;;;;10.75;6.13;;;;;;;;;;5011896;28;20065;-65
2023/07/22 05:17:21;;;;;;;12.85;6.32;;;;;;;;;;5013115;28;20493;-65
2023/07/22 05:19:48;;;;;;;11.35;6.03;;;;;;;;;;5011137;28;20029;-65
2023/07/22 05:22:14;;;;;;;10.32;6.05;;;;;;;;;;5014493;28;20091;-65
2023/07/22 05:24:40;;;;;;;11.73;6.18;;;;;;;;;;5013800;28;20044;-65
2023/07/22 05:27:07;;;;;;;11.35;6.10;;;;;;;;;;5013925;28;20041;-65
2023/07/22 05:29:33;;;;;;;11.13;6.15;;;;;;;;;;5012484;28;20046;-65
2023/07/22 05:31:59;;;;;;;9.75;6.00;;;;;;;;;;5014332;28;20052;-65
2023/07/22 05:34:25;;;;;;;11.60;6.68;;;;;;;;;;5017080;28;20083;-65
2023/07/22 05:36:51;;;;;;;12.73;6.60;;;;;;;;;;5018201;28;20030;-65
2023/07/22 05:39:18;;;;;;;13.23;6.55;;;;;;;;;;5018048;28;20048;-65
2023/07/22 05:41:44;;;;;;;11.05;6.45;;;;;;;;;;5017362;28;20079;-65
2023/07/22 05:44:13;;;;;;;10.68;6.47;;;;;;;;;;5017928;28;20033;-65
2023/07/22 05:46:39;;;;;;;10.05;6.45;;;;;;;;;;5018146;28;20033;-66
2023/07/22 05:49:05;;;;;;;12.02;7.13;;;;;;;;;;5017859;28;20041;-66
2023/07/22 05:51:32;;;;;;;11.13;5.90;;;;;;;;;;5016508;28;20028;-65
2023/07/22 05:53:58;;;;;;;11.48;6.68;;;;;;;;;;5016430;28;21772;-65
2023/07/22 05:56:24;;;;;;;10.50;6.97;;;;;;;;;;5017483;28;20029;-66
2023/07/22 05:58:50;;;;;;;11.20;6.53;;;;;;;;;;5016514;28;20125;-65
2023/07/22 06:01:16;;;;;;;9.48;6.40;;;;;;;;;;5017590;28;20409;-66
2023/07/22 06:03:43;;;;;;;9.73;6.20;;;;;;;;;;5016377;28;20080;-66
2023/07/22 06:06:09;;;;;;;12.05;6.55;;;;;;;;;;5016156;28;20033;-66
2023/07/22 06:08:35;;;;;;;10.65;6.22;;;;;;;;;;5016262;28;20084;-66
2023/07/22 06:11:01;;;;;;;12.68;6.53;;;;;;;;;;5016141;28;20037;-66
2023/07/22 06:13:28;;;;;;;12.00;6.53;;;;;;;;;;5015307;28;20377;-66
2023/07/22 06:15:54;;;;;;;15.85;6.75;;;;;;;;;;5014574;28;20044;-65
2023/07/22 06:18:20;;;;;;;11.93;6.72;;;;;;;;;;5016137;28;20142;-65
2023/07/22 06:20:46;;;;;;;14.20;7.35;;;;;;;;;;5016097;28;20060;-65
2023/07/22 06:23:12;;;;;;;12.18;7.10;;;;;;;;;;5017364;28;20521;-65
2023/07/22 06:25:38;;;;;;;11.63;7.50;;;;;;;;;;5017084;28;20150;-65
2023/07/22 06:28:04;;;;;;;13.80;8.23;;;;;;;;;;5017854;28;21718;-65
2023/07/22 06:30:30;;;;;;;13.35;7.85;;;;;;;;;;5015526;28;20050;-65
2023/07/22 06:32:57;;;;;;;13.30;7.68;;;;;;;;;;5017051;28;20736;-65
2023/07/22 06:35:23;;;;;;;13.88;8.30;;;;;;;;;;5016420;28;20058;-65
2023/07/22 06:37:49;;;;;;;12.35;7.53;;;;;;;;;;5015941;28;20068;-65
2023/07/22 06:40:15;;;;;;;14.23;8.43;;;;;;;;;;5016442;28;20041;-65
2023/07/22 06:42:41;;;;;;;17.85;8.85;;;;;;;;;;5016686;28;20083;-65
2023/07/22 06:45:07;;;;;;;12.05;7.32;;;;;;;;;;5016029;28;20121;-65
2023/07/22 06:47:34;;;;;;;13.75;7.85;;;;;;;;;;5015763;28;20037;-65
2023/07/22 06:50:00;;;;;;;12.27;7.95;;;;;;;;;;5016132;28;20029;-65
2023/07/22 06:52:26;;;;;;;12.35;7.85;;;;;;;;;;5015588;28;20037;-65
2023/07/22 06:54:52;;;;;;;15.57;8.82;;;;;;;;;;5015317;28;20036;-65
2023/07/22 06:57:18;;;;;;;12.93;8.60;;;;;;;;;;5014873;28;20041;-65
2023/07/22 06:59:44;;;;;;;12.43;8.23;;;;;;;;;;5014956;28;21084;-65
2023/07/22 07:02:10;;;;;;;12.55;8.20;;;;;;;;;;5014500;28;20037;-65
2023/07/22 07:04:36;;;;;;;15.43;7.70;;;;;;;;;;5015697;28;20033;-65
2023/07/22 07:07:03;;;;;;;14.05;8.45;;;;;;;;;;5007702;28;20218;-65
2023/07/22 07:09:29;;;;;;;13.20;8.32;;;;;;;;;;5009816;28;20025;-65
2023/07/22 07:11:57;;;;;;;15.45;8.10;;;;;;;;;;5009979;28;20044;-65
2023/07/22 07:14:27;;;;;;;14.70;8.93;;;;;;;;;;5008604;28;20021;-65
2023/07/22 07:16:53;;;;;;;16.48;8.35;;;;;;;;;;5009891;28;20144;-65
2023/07/22 07:19:19;;;;;;;13.57;8.82;;;;;;;;;;5009248;28;20025;-65
2023/07/22 07:21:45;;;;;;;14.25;8.45;;;;;;;;;;5008119;28;20044;-65
2023/07/22 07:24:11;;;;;;;13.10;8.55;;;;;;;;;;5009219;28;21979;-65
2023/07/22 07:26:37;;;;;;;12.73;8.15;;;;;;;;;;5010246;28;20034;-66
2023/07/22 07:29:03;;;;;;;14.50;9.07;;;;;;;;;;5009524;28;20040;-65
2023/07/22 07:31:29;;;;;;;15.40;9.05;;;;;;;;;;5010286;28;20041;-65
2023/07/22 07:33:55;;;;;;;13.70;9.00;;;;;;;;;;5008260;28;20034;-65
2023/07/22 07:36:22;;;;;;;13.20;8.20;;;;;;;;;;5009784;28;20033;-65
2023/07/22 07:38:48;;;;;;;12.93;8.30;;;;;;;;;;5008787;28;20037;-65
2023/07/22 07:41:14;;;;;;;13.05;7.95;;;;;;;;;;5006649;28;20480;-65
2023/07/22 07:43:41;;;;;;;13.20;8.63;;;;;;;;;;5008894;28;20048;-65
2023/07/22 07:46:20;;;;;;;14.52;7.65;;;;;;;;;;5008111;28;20045;-65
2023/07/22 07:48:49;;;;;;;12.90;8.07;;;;;;;;;;5008123;28;20029;-65
2023/07/22 07:51:16;;;;;;;12.77;8.23;;;;;;;;;;5008418;28;20029;-65
2023/07/22 07:53:43;;;;;;;12.68;8.07;;;;;;;;;;5008014;28;20029;-65
2023/07/22 07:56:10;;;;;;;14.10;8.00;;;;;;;;;;5009655;28;20122;-65
2023/07/22 07:58:36;;;;;;;13.55;7.85;;;;;;;;;;5008953;28;20124;-65
2023/07/22 08:01:03;;;;;;;13.98;7.90;;;;;;;;;;5005191;28;20041;-65
2023/07/22 08:03:29;;;;;;;12.45;7.32;;;;;;;;;;5005800;28;20154;-65
2023/07/22 08:05:55;;;;;;;14.25;8.77;;;;;;;;;;5008525;28;20044;-65
2023/07/22 08:08:22;;;;;;;12.05;7.97;;;;;;;;;;5008189;28;20036;-65
2023/07/22 08:10:48;;;;;;;12.15;7.53;;;;;;;;;;5009268;28;20048;-65
2023/07/22 08:13:14;;;;;;;10.45;6.55;;;;;;;;;;5009830;28;20083;-65
2023/07/22 08:15:41;;;;;;;11.45;7.22;;;;;;;;;;5009698;28;20026;-65
2023/07/22 08:18:08;;;;;;;11.40;6.82;;;;;;;;;;5009458;28;20041;-65
2023/07/22 08:20:34;;;;;;;10.43;6.60;;;;;;;;;;5008723;28;20107;-65
2023/07/22 08:23:00;;;;;;;11.52;7.05;;;;;;;;;;5007991;28;20095;-65
2023/07/22 08:25:26;;;;;;;14.48;7.13;;;;;;;;;;5009880;28;20041;-65
2023/07/22 08:27:53;;;;;;;11.73;6.40;;;;;;;;;;5008036;28;20057;-65
2023/07/22 08:30:19;;;;;;;12.65;6.95;;;;;;;;;;5007883;28;20084;-65
2023/07/22 08:32:45;;;;;;;11.27;7.07;;;;;;;;;;5008308;28;20140;-65
2023/07/22 08:35:11;;;;;;;12.02;7.60;;;;;;;;;;5008365;28;20513;-65
2023/07/22 08:37:37;;;;;;;13.02;7.85;;;;;;;;;;5009076;28;21102;-65
2023/07/22 08:40:03;;;;;;;14.18;7.80;;;;;;;;;;5008502;28;21719;-65
2023/07/22 08:42:32;;;;;;;12.75;7.95;;;;;;;;;;5009407;28;20705;-65
2023/07/22 08:45:01;;;;;;;12.75;7.65;;;;;;;;;;5008820;28;20530;-65
2023/07/22 08:47:29;;;;;;;11.00;8.30;;;;;;;;;;5009701;28;20447;-65
2023/07/22 08:49:58;;;;;;;11.25;7.25;;;;;;;;;;5009395;28;20813;-65
2023/07/22 08:52:24;;;;;;;9.30;6.30;;;;;;;;;;5006706;28;20152;-65
2023/07/22 08:54:50;;;;;;;9.48;6.60;;;;;;;;;;5004880;28;20033;-65
2023/07/22 08:57:18;;;;;;;9.30;6.68;;;;;;;;;;5004707;28;20029;-65
2023/07/22 08:59:44;;;;;;;10.85;6.65;;;;;;;;;;5006817;28;20421;-65
2023/07/22 09:02:13;;;;;;;11.23;5.68;;;;;;;;;;5006086;28;20033;-65
2023/07/22 09:04:42;;;;;;;7.78;4.90;;;;;;;;;;5007150;28;20036;-65
2023/07/22 09:07:08;;;;;;;8.30;4.93;;;;;;;;;;5007128;28;20087;-65
2023/07/22 09:09:35;;;;;;;9.02;5.43;;;;;;;;;;5007456;28;20032;-66
2023/07/22 09:12:02;;;;;;;9.93;5.53;;;;;;;;;;5006084;28;20032;-65
2023/07/22 09:14:28;;;;;;;9.55;5.50;;;;;;;;;;5007553;28;20103;-65
2023/07/22 09:16:54;;;;;;;8.65;5.43;;;;;;;;;;5006891;28;20071;-65
2023/07/22 09:19:21;;;;;;;10.07;5.93;;;;;;;;;;5007608;28;20049;-65
2023/07/22 09:21:47;;;;;;;10.00;6.28;;;;;;;;;;5006130;28;20115;-65
2023/07/22 09:24:21;;;;;;;9.82;6.05;;;;;;;;;;5007752;28;20033;-65
2023/07/22 09:26:47;;;;;;;11.98;6.35;;;;;;;;;;5006792;28;20051;-65
2023/07/22 09:29:13;;;;;;;14.93;7.88;;;;;;;;;;5007955;28;20145;-66
2023/07/22 09:31:50;;;;;;;16.55;8.00;;;;;;;;;;5009314;28;20048;-66
2023/07/22 09:34:16;;;;;;;14.45;8.20;;;;;;;;;;5007248;28;20029;-66
2023/07/22 09:36:52;;;;;;;10.07;6.10;;;;;;;;;;5010318;28;20030;-66
2023/07/22 09:39:18;;;;;;;11.70;7.05;;;;;;;;;;5008732;28;20032;-66
2023/07/22 09:41:45;;;;;;;17.55;8.52;;;;;;;;;;5007163;28;20075;-66
2023/07/22 09:44:14;;;;;;;14.98;8.05;;;;;;;;;;5008409;28;22014;-66
2023/07/22 09:46:41;;;;;;;12.38;7.68;;;;;;;;;;5007901;28;20068;-66
2023/07/22 09:49:09;;;;;;;12.45;7.70;;;;;;;;;;5006410;28;20042;-66
2023/07/22 09:51:41;;;;;;;12.65;7.88;;;;;;;;;;5006921;28;20041;-66
2023/07/22 09:54:08;;;;;;;12.30;7.47;;;;;;;;;;5008424;28;20029;-66
2023/07/22 09:56:43;;;;;;;13.57;7.78;;;;;;;;;;5009459;28;20061;-66
2023/07/22 09:59:10;;;;;;;13.35;8.25;;;;;;;;;;5006656;28;20033;-66
2023/07/22 10:01:38;;;;;;;14.50;8.52;;;;;;;;;;5007435;28;20045;-66
2023/07/22 10:04:05;;;;;;;13.18;8.25;;;;;;;;;;5007520;28;20134;-66
2023/07/22 10:06:31;;;;;;;14.18;7.50;;;;;;;;;;5006361;28;20033;-66
2023/07/22 10:08:58;;;;;;;12.95;8.10;;;;;;;;;;5008314;28;20039;-65
2023/07/22 10:11:25;;;;;;;12.35;7.97;;;;;;;;;;5009159;28;20084;-66
2023/07/22 10:13:53;;;;;;;13.73;8.82;;;;;;;;;;5008214;28;20044;-66
2023/07/22 10:16:19;;;;;;;12.45;8.05;;;;;;;;;;5008972;28;20103;-65
2023/07/22 10:18:46;;;;;;;12.82;8.13;;;;;;;;;;5010145;28;20251;-66
2023/07/22 10:21:13;;;;;;;12.05;7.85;;;;;;;;;;5012452;28;20140;-66
2023/07/22 10:23:39;;;;;;;13.65;8.68;;;;;;;;;;5012230;28;20040;-66
2023/07/22 10:26:06;;;;;;;11.93;7.47;;;;;;;;;;5012061;28;20033;-66
2023/07/22 10:28:32;;;;;;;12.35;7.88;;;;;;;;;;5011564;28;21825;-65
2023/07/22 10:30:58;;;;;;;14.48;7.85;;;;;;;;;;5012524;28;20090;-66
2023/07/22 10:33:25;;;;;;;11.68;7.85;;;;;;;;;;5012492;28;20029;-66
2023/07/22 10:36:08;;;;;;;11.02;6.50;;;;;;;;;;5010108;28;20029;-66
2023/07/22 10:38:35;;;;;;;12.20;7.15;;;;;;;;;;5011472;28;20037;-66
2023/07/22 10:41:01;;;;;;;10.85;6.90;;;;;;;;;;5011451;28;20029;-66
2023/07/22 10:43:31;;;;;;;11.10;6.15;;;;;;;;;;5013569;28;20100;-66
2023/07/22 10:45:58;;;;;;;8.80;5.82;;;;;;;;;;5010913;28;20555;-66
2023/07/22 10:48:28;;;;;;;9.45;5.57;;;;;;;;;;5010549;28;20132;-66
2023/07/22 10:50:58;;;;;;;11.57;6.07;;;;;;;;;;5012495;28;20040;-66
2023/07/22 10:53:24;;;;;;;14.75;5.82;;;;;;;;;;5011293;28;20033;-66
2023/07/22 10:56:06;;;;;;;9.50;5.80;;;;;;;;;;5012443;28;20022;-66
2023/07/22 10:58:33;;;;;;;9.43;5.78;;;;;;;;;;5013660;28;20383;-66
2023/07/22 11:01:28;;;;;;;9.20;5.50;;;;;;;;;;5013111;28;20649;-66
2023/07/22 11:04:05;;;;;;;9.02;5.68;;;;;;;;;;5011706;28;20045;-66
2023/07/22 11:06:31;;;;;;;9.82;5.47;;;;;;;;;;5013054;28;20792;-66
2023/07/22 11:08:57;;;;;;;9.25;5.50;;;;;;;;;;5013203;28;20048;-66
2023/07/22 11:11:39;;;;;;;10.55;6.15;;;;;;;;;;5014477;28;20025;-66
2023/07/22 11:14:21;;;;;;;9.65;5.85;;;;;;;;;;5015332;28;20029;-66
2023/07/22 11:16:47;;;;;;;10.25;5.70;;;;;;;;;;5014912;28;20079;-66
2023/07/22 11:19:14;;;;;;;8.75;5.43;;;;;;;;;;5015943;28;20070;-66
2023/07/22 11:21:41;;;;;;;8.35;5.43;;;;;;;;;;5013058;28;21706;-66
2023/07/22 11:24:07;;;;;;;10.82;5.13;;;;;;;;;;5014882;28;20667;-66
2023/07/22 11:26:33;;;;;;;8.95;5.32;;;;;;;;;;5014660;28;20091;-66
2023/07/22 11:29:04;;;;;;;8.55;4.97;;;;;;;;;;5013395;28;20033;-66
2023/07/22 11:31:33;;;;;;;7.78;4.70;;;;;;;;;;5013672;28;20045;-66
2023/07/22 11:34:00;;;;;;;9.18;5.10;;;;;;;;;;5012690;28;20016;-66
2023/07/22 11:36:29;;;;;;;8.85;5.40;;;;;;;;;;5012477;28;20999;-66
2023/07/22 11:39:02;;;;;;;9.80;5.80;;;;;;;;;;5012055;28;20453;-66
2023/07/22 11:41:28;;;;;;;10.57;6.93;;;;;;;;;;5011012;28;20144;-66
2023/07/22 11:43:54;;;;;;;12.50;6.28;;;;;;;;;;5013506;28;20944;-66
2023/07/22 11:46:20;;;;;;;10.25;6.30;;;;;;;;;;5012031;28;20045;-66
2023/07/22 11:48:50;;;;;;;14.52;6.63;;;;;;;;;;5013231;28;20064;-66
2023/07/22 11:51:17;;;;;;;12.52;7.38;;;;;;;;;;5024271;28;20431;-66
2023/07/22 11:53:44;;;;;;;9.63;6.70;;;;;;;;;;5009020;28;20591;-67
2023/07/22 11:56:10;;;;;;;9.65;6.63;;;;;;;;;;5007395;28;20033;-67
2023/07/22 11:58:36;;;;;;;12.25;7.07;;;;;;;;;;5009310;28;20065;-67
2023/07/22 12:01:03;;;;;;;13.88;7.38;;;;;;;;;;5009953;28;20034;-66
2023/07/22 12:03:35;;;;;;;11.18;7.50;;;;;;;;;;5009816;28;20034;-66
2023/07/22 12:06:06;;;;;;;11.63;7.65;;;;;;;;;;5009917;28;20033;-66
2023/07/22 12:08:33;;;;;;;13.90;8.20;;;;;;;;;;5011061;28;20068;-66
2023/07/22 12:10:59;;;;;;;13.02;8.32;;;;;;;;;;5011163;28;20492;-66
2023/07/22 12:13:26;;;;;;;16.27;9.00;;;;;;;;;;5012155;28;20026;-66
2023/07/22 12:16:07;;;;;;;11.25;7.95;;;;;;;;;;5012471;28;20033;-66
2023/07/22 12:18:46;;;;;;;11.77;8.23;;;;;;;;;;5012213;28;20049;-66
2023/07/22 12:21:12;;;;;;;14.13;9.18;;;;;;;;;;5011965;28;20041;-66
2023/07/22 12:23:39;;;;;;;12.70;9.07;;;;;;;;;;5010233;28;20041;-66
2023/07/22 12:26:05;;;;;;;14.85;10.23;;;;;;;;;;5010123;28;20152;-67
2023/07/22 12:28:33;;;;;;;12.82;9.30;;;;;;;;;;5009859;28;20141;-66
2023/07/22 12:30:59;;;;;;;13.13;9.95;;;;;;;;;;5008219;28;20033;-67
2023/07/22 12:33:25;;;;;;;12.23;8.88;;;;;;;;;;5008922;28;20032;-67
2023/07/22 12:35:52;;;;;;;12.52;9.43;;;;;;;;;;5009216;28;20036;-66
2023/07/22 12:38:18;;;;;;;14.20;9.80;;;;;;;;;;5008487;28;20048;-66
2023/07/22 12:40:44;;;;;;;12.88;9.50;;;;;;;;;;5010873;28;20120;-67
2023/07/22 12:43:10;;;;;;;14.05;9.13;;;;;;;;;;5011337;28;21226;-67
2023/07/22 12:45:36;;;;;;;14.82;9.85;;;;;;;;;;5008113;28;20745;-67
2023/07/22 12:48:02;;;;;;;15.52;10.93;;;;;;;;;;5008303;28;20038;-67
2023/07/22 12:50:30;;;;;;;13.90;9.73;;;;;;;;;;5006512;28;21073;-67
2023/07/22 12:52:57;;;;;;;15.00;10.52;;;;;;;;;;5006858;28;21290;-67
2023/07/22 12:55:23;;;;;;;18.10;10.70;;;;;;;;;;5008017;28;20040;-67
2023/07/22 12:57:49;;;;;;;16.17;9.80;;;;;;;;;;5008176;28;20043;-67
2023/07/22 13:00:15;;;;;;;13.73;9.30;;;;;;;;;;5009588;28;20056;-67
2023/07/22 13:02:41;;;;;;;15.90;10.18;;;;;;;;;;5011348;28;20120;-67
2023/07/22 13:05:07;;;;;;;15.00;11.10;;;;;;;;;;5010166;28;20045;-67
2023/07/22 13:07:33;;;;;;;16.13;10.95;;;;;;;;;;5008610;28;20127;-67
2023/07/22 13:10:02;;;;;;;17.52;12.73;;;;;;;;;;5009204;28;20035;-67
2023/07/22 13:12:28;;;;;;;17.08;12.27;;;;;;;;;;5009622;28;20151;-67
2023/07/22 13:14:54;;;;;;;15.30;11.20;;;;;;;;;;5009053;28;20029;-67
2023/07/22 13:17:20;;;;;;;16.88;11.98;;;;;;;;;;5006968;28;20059;-67
2023/07/22 13:19:46;;;;;;;15.45;11.13;;;;;;;;;;5006660;28;20036;-67
2023/07/22 13:22:13;;;;;;;16.00;10.48;;;;;;;;;;5006912;28;20042;-67
2023/07/22 13:24:39;;;;;;;14.52;10.13;;;;;;;;;;5006936;28;20033;-67
2023/07/22 13:27:05;;;;;;;16.60;10.50;;;;;;;;;;5008382;28;20057;-67
2023/07/22 13:29:31;;;;;;;16.23;11.00;;;;;;;;;;5008251;28;20026;-67
2023/07/22 13:31:57;;;;;;;13.70;10.10;;;;;;;;;;5006105;28;20056;-67
2023/07/22 13:34:23;;;;;;;14.73;10.57;;;;;;;;;;5007899;28;20935;-67
2023/07/22 13:36:49;;;;;;;14.73;11.25;;;;;;;;;;5008037;28;20061;-67
2023/07/22 13:39:15;;;;;;;13.52;9.00;;;;;;;;;;5008053;28;20029;-66
2023/07/22 13:41:41;;;;;;;15.38;11.63;;;;;;;;;;5008519;28;20052;-66
2023/07/22 13:44:07;;;;;;;16.65;11.20;;;;;;;;;;5007468;28;20168;-67
2023/07/22 13:46:34;;;;;;;15.65;12.48;;;;;;;;;;5008501;28;20169;-67
2023/07/22 13:49:00;;;;;;;15.02;12.70;;;;;;;;;;5013462;28;20073;-67
2023/07/22 13:51:26;;;;;;;14.35;11.18;;;;;;;;;;5008210;28;21301;-67
2023/07/22 13:53:52;;;;;;;13.68;11.35;;;;;;;;;;5009089;28;20600;-67
2023/07/22 13:56:18;;;;;;;14.65;11.52;;;;;;;;;;5011760;28;21617;-67
2023/07/22 13:58:44;;;;;;;18.35;12.38;;;;;;;;;;5010625;28;20048;-67
2023/07/22 14:01:10;;;;;;;16.02;11.48;;;;;;;;;;5010636;28;20124;-67
2023/07/22 14:03:36;;;;;;;17.38;11.25;;;;;;;;;;5011664;28;20515;-67
2023/07/22 14:06:02;;;;;;;13.00;10.68;;;;;;;;;;5012119;28;20458;-67
2023/07/22 14:08:29;;;;;;;14.23;10.75;;;;;;;;;;5012693;28;20033;-67
2023/07/22 14:10:55;;;;;;;13.95;11.65;;;;;;;;;;5012158;28;20461;-67
2023/07/22 14:13:21;;;;;;;14.75;11.65;;;;;;;;;;5012391;28;21428;-67
2023/07/22 14:15:47;;;;;;;20.30;11.18;;;;;;;;;;5012521;28;20195;-67
2023/07/22 14:18:16;;;;;;;13.18;10.60;;;;;;;;;;5011637;28;20051;-67
2023/07/22 14:20:43;;;;;;;14.65;11.20;;;;;;;;;;5011572;28;20041;-67
2023/07/22 14:23:09;;;;;;;15.82;10.93;;;;;;;;;;5008835;28;20037;-67
2023/07/22 14:25:35;;;;;;;15.05;11.65;;;;;;;;;;5011586;28;20037;-67
2023/07/22 14:28:01;;;;;;;14.02;11.32;;;;;;;;;;5012093;28;20050;-67
2023/07/22 14:30:27;;;;;;;15.45;10.95;;;;;;;;;;5012382;28;20050;-67
2023/07/22 14:32:53;;;;;;;18.25;11.07;;;;;;;;;;5012192;28;20595;-67